Time;durP1;ratioP1;P1;durP2;ratioP2;P2;SDS_P1;SDS_P2;PMS_P1;PMS_P2;Temp;Humidity;BMP_temperature;BMP_pressure;BME280_temperature;BME280_humidity;BME280_pressure;Samples;Min_cycle;Max_cycle;Signal;HPM_P1;HPM_P2
2023/10/06 00:00:46;;;;;;;2.90;2.23;;;;;;;;;;5084213;27;91432;-55
2023/10/06 00:03:14;;;;;;;2.33;1.60;;;;;;;;;;5078189;27;89093;-55
2023/10/06 00:05:44;;;;;;;2.80;2.07;;;;;;;;;;5076565;27;87826;-55
2023/10/06 00:08:17;;;;;;;5.27;2.07;;;;;;;;;;5063864;27;87300;-55
2023/10/06 00:10:51;;;;;;;3.77;2.57;;;;;;;;;;5064297;27;88522;-55
2023/10/06 00:13:28;;;;;;;1.60;1.37;;;;;;;;;;5064074;27;88328;-55
2023/10/06 00:15:58;;;;;;;2.23;1.40;;;;;;;;;;5064028;27;88703;-55
2023/10/06 00:18:27;;;;;;;2.53;1.63;;;;;;;;;;5076497;27;87876;-55
2023/10/06 00:20:57;;;;;;;4.30;2.10;;;;;;;;;;5084059;27;89478;-55
2023/10/06 00:23:28;;;;;;;3.50;1.83;;;;;;;;;;5080796;27;89140;-55
2023/10/06 00:25:56;;;;;;;3.20;1.30;;;;;;;;;;5083429;27;88831;-55
2023/10/06 00:28:26;;;;;;;2.50;1.37;;;;;;;;;;5082706;27;89223;-55
2023/10/06 00:30:56;;;;;;;2.03;1.30;;;;;;;;;;5083587;27;89307;-55
2023/10/06 00:33:32;;;;;;;2.10;1.50;;;;;;;;;;5071030;27;89103;-55
2023/10/06 00:36:07;;;;;;;2.87;1.50;;;;;;;;;;5073898;27;88840;-55
2023/10/06 00:38:36;;;;;;;4.30;1.43;;;;;;;;;;5073754;27;87534;-55
2023/10/06 00:41:07;;;;;;;2.80;1.50;;;;;;;;;;5073732;27;87901;-55
2023/10/06 00:43:39;;;;;;;3.10;1.30;;;;;;;;;;5075394;27;90119;-55
2023/10/06 00:46:08;;;;;;;3.07;1.63;;;;;;;;;;5074007;27;89764;-55
2023/10/06 00:48:38;;;;;;;3.37;1.57;;;;;;;;;;5071320;27;87565;-55
2023/10/06 00:51:07;;;;;;;1.57;1.33;;;;;;;;;;5073231;27;90615;-55
2023/10/06 00:53:36;;;;;;;3.53;2.00;;;;;;;;;;5074560;27;87926;-55
2023/10/06 00:56:10;;;;;;;1.87;1.67;;;;;;;;;;5073573;27;88877;-55
2023/10/06 00:58:41;;;;;;;2.67;1.63;;;;;;;;;;5075089;27;88008;-55
2023/10/06 01:01:12;;;;;;;3.70;1.90;;;;;;;;;;5074180;27;88754;-55
2023/10/06 01:03:42;;;;;;;2.27;1.60;;;;;;;;;;5076278;27;89003;-55
2023/10/06 01:06:14;;;;;;;4.30;1.50;;;;;;;;;;5072086;27;88961;-55
2023/10/06 01:08:45;;;;;;;1.97;1.60;;;;;;;;;;5071047;27;88074;-55
2023/10/06 01:11:17;;;;;;;2.17;1.40;;;;;;;;;;5072423;27;89633;-55
2023/10/06 01:13:56;;;;;;;4.20;1.83;;;;;;;;;;5070977;27;89081;-55
2023/10/06 01:16:29;;;;;;;2.43;1.60;;;;;;;;;;5074178;27;88963;-55
2023/10/06 01:19:14;;;;;;;2.93;2.17;;;;;;;;;;5073620;27;87585;-55
2023/10/06 01:21:45;;;;;;;2.70;1.60;;;;;;;;;;5072874;27;89721;-55
2023/10/06 01:24:15;;;;;;;2.53;1.83;;;;;;;;;;5074228;27;89178;-55
2023/10/06 01:26:43;;;;;;;3.00;1.70;;;;;;;;;;5083284;27;88634;-55
2023/10/06 01:29:13;;;;;;;2.97;1.77;;;;;;;;;;5082667;27;87684;-55
2023/10/06 01:31:42;;;;;;;3.60;1.80;;;;;;;;;;5082917;27;89648;-55
2023/10/06 01:34:11;;;;;;;2.30;1.67;;;;;;;;;;5082019;27;88954;-56
2023/10/06 01:36:39;;;;;;;4.83;1.70;;;;;;;;;;5082152;27;88675;-55
2023/10/06 01:39:16;;;;;;;2.67;1.70;;;;;;;;;;5082808;27;87719;-55
2023/10/06 01:41:49;;;;;;;2.70;1.30;;;;;;;;;;5083042;27;88561;-55
2023/10/06 01:44:17;;;;;;;3.67;2.07;;;;;;;;;;5082361;27;88020;-55
2023/10/06 01:46:53;;;;;;;3.90;1.87;;;;;;;;;;5069276;27;88791;-55
2023/10/06 01:49:22;;;;;;;2.87;1.60;;;;;;;;;;5082147;27;87497;-55
2023/10/06 01:51:51;;;;;;;2.17;1.50;;;;;;;;;;5082897;27;89559;-55
2023/10/06 01:54:35;;;;;;;1.63;1.27;;;;;;;;;;5082244;27;89084;-55
2023/10/06 01:57:06;;;;;;;2.63;1.20;;;;;;;;;;5082376;27;87410;-55
2023/10/06 01:59:35;;;;;;;1.97;1.70;;;;;;;;;;5081709;27;87756;-55
2023/10/06 02:02:07;;;;;;;2.10;1.60;;;;;;;;;;5078963;27;88490;-55
2023/10/06 02:04:44;;;;;;;2.67;1.63;;;;;;;;;;5078203;27;89190;-55
2023/10/06 02:07:13;;;;;;;5.80;1.50;;;;;;;;;;5072247;27;87754;-55
2023/10/06 02:09:42;;;;;;;2.03;1.43;;;;;;;;;;5072828;27;87659;-55
2023/10/06 02:12:13;;;;;;;6.57;1.60;;;;;;;;;;5071466;27;89777;-55
2023/10/06 02:14:42;;;;;;;2.97;2.00;;;;;;;;;;5070770;27;89173;-55
2023/10/06 02:17:11;;;;;;;2.90;1.70;;;;;;;;;;5071620;27;88922;-55
2023/10/06 02:19:42;;;;;;;1.93;1.53;;;;;;;;;;5074014;27;87602;-55
2023/10/06 02:22:11;;;;;;;4.20;1.93;;;;;;;;;;5071173;27;88319;-55
2023/10/06 02:24:40;;;;;;;2.83;1.60;;;;;;;;;;5069920;27;89983;-55
2023/10/06 02:27:10;;;;;;;3.40;2.10;;;;;;;;;;5071485;27;89700;-55
2023/10/06 02:29:43;;;;;;;3.77;2.80;;;;;;;;;;5073264;27;87625;-55
2023/10/06 02:32:11;;;;;;;3.73;2.17;;;;;;;;;;5072523;27;88566;-55
2023/10/06 02:34:40;;;;;;;2.67;1.80;;;;;;;;;;5069982;27;87729;-55
2023/10/06 02:37:08;;;;;;;3.13;2.30;;;;;;;;;;5070365;27;88999;-55
2023/10/06 02:39:43;;;;;;;5.07;2.67;;;;;;;;;;5072737;27;87442;-55
2023/10/06 02:42:13;;;;;;;3.43;2.10;;;;;;;;;;5070619;27;89688;-55
2023/10/06 02:44:44;;;;;;;4.97;2.83;;;;;;;;;;5073341;27;88830;-55
2023/10/06 02:47:13;;;;;;;6.93;2.97;;;;;;;;;;5071225;27;87316;-55
2023/10/06 02:49:48;;;;;;;5.73;2.60;;;;;;;;;;5073531;27;87687;-55
2023/10/06 02:52:21;;;;;;;5.40;3.53;;;;;;;;;;5071478;27;88119;-55
2023/10/06 02:55:04;;;;;;;8.43;3.93;;;;;;;;;;5071088;27;87959;-55
2023/10/06 02:57:35;;;;;;;5.23;3.70;;;;;;;;;;5069407;27;88753;-55
2023/10/06 03:02:47;;;;;;;5.53;3.77;;;;;;;;;;5073382;27;87577;-55
2023/10/06 03:05:16;;;;;;;8.07;3.77;;;;;;;;;;5072446;27;89169;-55
2023/10/06 03:07:45;;;;;;;6.37;3.23;;;;;;;;;;5070115;27;88963;-55
2023/10/06 03:10:18;;;;;;;5.63;3.80;;;;;;;;;;5072178;27;87645;-55
2023/10/06 03:12:46;;;;;;;5.17;3.20;;;;;;;;;;5072774;27;89772;-55
2023/10/06 03:15:28;;;;;;;5.10;3.43;;;;;;;;;;5070362;27;90141;-55
2023/10/06 03:17:58;;;;;;;7.17;3.67;;;;;;;;;;5067559;27;88729;-55
2023/10/06 03:20:39;;;;;;;6.63;4.03;;;;;;;;;;5071908;27;87816;-55
2023/10/06 03:23:23;;;;;;;8.03;4.73;;;;;;;;;;5079849;27;88633;-55
2023/10/06 03:25:53;;;;;;;7.50;4.00;;;;;;;;;;5081200;27;89228;-55
2023/10/06 03:28:28;;;;;;;10.13;5.00;;;;;;;;;;5080268;27;87682;-55
2023/10/06 03:31:02;;;;;;;7.97;4.50;;;;;;;;;;5072205;27;87541;-55
2023/10/06 03:33:31;;;;;;;8.53;5.20;;;;;;;;;;5065369;27;89815;-55
2023/10/06 03:36:01;;;;;;;7.47;4.70;;;;;;;;;;5080659;27;89163;-55
2023/10/06 03:38:34;;;;;;;9.60;4.97;;;;;;;;;;5069333;27;87730;-55
2023/10/06 03:41:12;;;;;;;7.63;4.57;;;;;;;;;;5071988;27;88041;-55
2023/10/06 03:43:47;;;;;;;8.30;4.50;;;;;;;;;;5069443;27;89753;-55
2023/10/06 03:46:19;;;;;;;8.87;5.27;;;;;;;;;;5068374;27;89122;-55
2023/10/06 03:48:49;;;;;;;8.23;4.93;;;;;;;;;;5070099;27;89049;-55
2023/10/06 03:51:18;;;;;;;11.93;5.67;;;;;;;;;;5068919;27;87583;-55
2023/10/06 03:53:48;;;;;;;6.97;4.03;;;;;;;;;;5072054;27;88537;-55
2023/10/06 03:56:17;;;;;;;6.43;4.97;;;;;;;;;;5070398;27;89261;-55
2023/10/06 03:58:46;;;;;;;5.70;3.93;;;;;;;;;;5069608;27;88907;-55
2023/10/06 04:01:19;;;;;;;6.60;3.90;;;;;;;;;;5070212;27;87623;-55
2023/10/06 04:03:50;;;;;;;6.70;4.20;;;;;;;;;;5067948;27;89581;-55
2023/10/06 04:06:19;;;;;;;6.73;4.43;;;;;;;;;;5074999;27;90340;-55
2023/10/06 04:08:48;;;;;;;7.63;4.67;;;;;;;;;;5080324;27;89916;-55
2023/10/06 04:11:17;;;;;;;7.10;4.53;;;;;;;;;;5081289;27;87653;-55
2023/10/06 04:13:45;;;;;;;7.97;4.27;;;;;;;;;;5080681;27;88515;-55
2023/10/06 04:16:14;;;;;;;9.30;4.40;;;;;;;;;;5080567;27;89148;-55
2023/10/06 04:18:47;;;;;;;5.67;3.80;;;;;;;;;;5080716;27;88811;-55
2023/10/06 04:21:18;;;;;;;8.50;3.77;;;;;;;;;;5081086;27;87394;-55
2023/10/06 04:23:46;;;;;;;7.00;4.20;;;;;;;;;;5081028;27;89556;-55
2023/10/06 04:26:15;;;;;;;8.70;4.40;;;;;;;;;;5083810;27;88171;-55
2023/10/06 04:28:45;;;;;;;7.97;4.27;;;;;;;;;;5080060;27;87774;-55
2023/10/06 04:31:15;;;;;;;6.60;3.57;;;;;;;;;;5063527;27;87721;-55
2023/10/06 04:33:44;;;;;;;7.60;3.60;;;;;;;;;;5065182;27;88539;-55
2023/10/06 04:36:20;;;;;;;6.37;4.13;;;;;;;;;;5084051;27;89434;-55
2023/10/06 04:38:50;;;;;;;3.90;2.80;;;;;;;;;;5083869;27;88967;-55
2023/10/06 04:41:20;;;;;;;10.23;3.87;;;;;;;;;;5083965;27;87649;-55
2023/10/06 04:43:51;;;;;;;5.57;3.67;;;;;;;;;;5083455;27;88603;-55
2023/10/06 04:46:20;;;;;;;5.17;3.43;;;;;;;;;;5083014;27;87613;-55
2023/10/06 04:48:49;;;;;;;5.13;2.90;;;;;;;;;;5082945;27;87525;-55
2023/10/06 04:51:18;;;;;;;4.60;2.43;;;;;;;;;;5084174;27;87625;-55
2023/10/06 04:53:47;;;;;;;3.70;2.90;;;;;;;;;;5083050;27;89540;-55
2023/10/06 04:56:17;;;;;;;6.77;2.97;;;;;;;;;;5083029;27;90043;-55
2023/10/06 04:58:45;;;;;;;4.40;2.57;;;;;;;;;;5082746;27;89479;-56
2023/10/06 05:01:16;;;;;;;5.80;2.47;;;;;;;;;;5082614;27;89361;-55
2023/10/06 05:03:45;;;;;;;5.93;3.20;;;;;;;;;;5082891;27;88588;-55
2023/10/06 05:06:16;;;;;;;4.97;2.00;;;;;;;;;;5082124;27;89124;-55
2023/10/06 05:08:46;;;;;;;5.97;2.07;;;;;;;;;;5075744;27;87511;-55
2023/10/06 05:11:18;;;;;;;4.80;2.60;;;;;;;;;;5082436;27;88803;-54
2023/10/06 05:13:49;;;;;;;4.17;3.20;;;;;;;;;;5083627;27;89608;-55
2023/10/06 05:16:19;;;;;;;3.10;2.40;;;;;;;;;;5076832;27;90226;-55
2023/10/06 05:18:48;;;;;;;5.63;2.43;;;;;;;;;;5080253;27;88791;-54
2023/10/06 05:21:17;;;;;;;5.00;2.47;;;;;;;;;;5083296;27;87902;-54
2023/10/06 05:23:45;;;;;;;3.20;2.53;;;;;;;;;;5082758;27;88521;-54
2023/10/06 05:26:14;;;;;;;6.77;2.50;;;;;;;;;;5082240;27;88002;-54
2023/10/06 05:28:47;;;;;;;5.50;3.00;;;;;;;;;;5082093;27;87684;-55
2023/10/06 05:31:16;;;;;;;3.03;2.23;;;;;;;;;;5083754;27;87456;-54
2023/10/06 05:33:44;;;;;;;3.60;2.60;;;;;;;;;;5077966;27;89748;-54
2023/10/06 05:36:12;;;;;;;5.67;2.57;;;;;;;;;;5081011;27;88040;-53
2023/10/06 05:38:46;;;;;;;5.70;2.30;;;;;;;;;;5083106;27;87686;-54
2023/10/06 05:41:15;;;;;;;4.50;2.20;;;;;;;;;;5083124;27;87503;-54
2023/10/06 05:43:43;;;;;;;2.37;2.03;;;;;;;;;;5083065;27;88611;-54
2023/10/06 05:46:13;;;;;;;2.70;2.13;;;;;;;;;;5082572;27;90044;-53
2023/10/06 05:48:43;;;;;;;2.07;1.47;;;;;;;;;;5082117;27;89810;-54
2023/10/06 05:51:14;;;;;;;3.07;1.70;;;;;;;;;;5083507;27;87224;-53
2023/10/06 05:53:43;;;;;;;3.03;2.03;;;;;;;;;;5082986;27;88634;-52
2023/10/06 05:56:14;;;;;;;4.00;2.03;;;;;;;;;;5070021;27;89378;-54
2023/10/06 05:58:43;;;;;;;1.97;1.57;;;;;;;;;;5075763;27;87905;-54
2023/10/06 06:01:14;;;;;;;3.30;1.93;;;;;;;;;;5066364;27;87500;-54
2023/10/06 06:03:45;;;;;;;1.53;1.40;;;;;;;;;;5062405;27;89597;-54
2023/10/06 06:06:15;;;;;;;2.30;1.60;;;;;;;;;;5076968;27;88081;-54
2023/10/06 06:08:47;;;;;;;2.13;1.63;;;;;;;;;;5081747;27;88830;-54
2023/10/06 06:11:16;;;;;;;1.33;1.23;;;;;;;;;;5078291;27;87994;-54
2023/10/06 06:13:45;;;;;;;3.97;1.63;;;;;;;;;;5082572;27;88703;-55
2023/10/06 06:16:27;;;;;;;4.10;1.30;;;;;;;;;;5070321;27;88105;-54
2023/10/06 06:18:56;;;;;;;3.17;2.00;;;;;;;;;;5076784;27;88833;-54
2023/10/06 06:21:25;;;;;;;1.60;1.47;;;;;;;;;;5082524;27;87629;-54
2023/10/06 06:23:57;;;;;;;3.03;1.77;;;;;;;;;;5081608;27;89658;-54
2023/10/06 06:26:26;;;;;;;1.93;1.47;;;;;;;;;;5082050;27;88169;-54
2023/10/06 06:28:54;;;;;;;2.40;1.53;;;;;;;;;;5082427;27;88873;-60
2023/10/06 06:31:22;;;;;;;1.70;1.43;;;;;;;;;;5082623;27;87743;-55
2023/10/06 06:33:56;;;;;;;2.17;1.50;;;;;;;;;;5081841;27;87375;-55
2023/10/06 06:36:26;;;;;;;4.97;1.53;;;;;;;;;;5080981;27;90014;-55
2023/10/06 06:38:55;;;;;;;2.00;1.50;;;;;;;;;;5081630;27;89211;-54
2023/10/06 06:41:23;;;;;;;1.83;1.73;;;;;;;;;;5082461;27;87585;-55
2023/10/06 06:43:57;;;;;;;3.23;1.80;;;;;;;;;;5081644;27;88733;-55
2023/10/06 06:46:29;;;;;;;3.03;1.33;;;;;;;;;;5081896;27;88014;-55
2023/10/06 06:49:01;;;;;;;1.20;1.10;;;;;;;;;;5080581;27;88917;-55
2023/10/06 06:51:30;;;;;;;2.73;1.40;;;;;;;;;;5082372;27;87648;-55
2023/10/06 06:53:59;;;;;;;2.10;1.67;;;;;;;;;;5081510;27;91161;-54
2023/10/06 06:56:28;;;;;;;2.37;1.40;;;;;;;;;;5081623;27;89136;-55
2023/10/06 06:58:59;;;;;;;2.00;1.07;;;;;;;;;;5081680;27;87359;-55
2023/10/06 07:01:28;;;;;;;2.50;1.50;;;;;;;;;;5081338;27;87997;-55
2023/10/06 07:04:00;;;;;;;2.93;1.30;;;;;;;;;;5080440;27;89849;-55
2023/10/06 07:06:31;;;;;;;2.83;1.43;;;;;;;;;;5081057;27;88051;-55
2023/10/06 07:09:00;;;;;;;1.23;1.13;;;;;;;;;;5081223;27;89197;-54
2023/10/06 07:11:29;;;;;;;2.30;1.07;;;;;;;;;;5081212;27;87658;-55
2023/10/06 07:13:57;;;;;;;1.67;1.03;;;;;;;;;;5081022;27;89564;-54
2023/10/06 07:16:26;;;;;;;1.53;1.00;;;;;;;;;;5078787;27;87836;-55
2023/10/06 07:18:54;;;;;;;0.93;0.83;;;;;;;;;;5081314;27;88818;-55
2023/10/06 07:21:23;;;;;;;1.50;1.20;;;;;;;;;;5081814;27;87841;-55
2023/10/06 07:23:56;;;;;;;2.27;1.20;;;;;;;;;;5081077;27;89628;-55
2023/10/06 07:26:25;;;;;;;1.90;1.07;;;;;;;;;;5080207;27;89776;-55
2023/10/06 07:28:55;;;;;;;1.20;1.00;;;;;;;;;;5081502;27;88701;-54
2023/10/06 07:31:24;;;;;;;3.20;1.27;;;;;;;;;;5081211;27;87625;-54
2023/10/06 07:33:54;;;;;;;4.00;1.07;;;;;;;;;;5080879;27;89773;-55
2023/10/06 07:36:22;;;;;;;1.57;0.90;;;;;;;;;;5081162;27;89109;-55
2023/10/06 07:38:52;;;;;;;2.00;1.13;;;;;;;;;;5080978;27;88849;-54
2023/10/06 07:41:23;;;;;;;0.90;0.90;;;;;;;;;;5080669;27;88134;-54
2023/10/06 07:43:52;;;;;;;1.50;1.40;;;;;;;;;;5080905;27;88346;-55
2023/10/06 07:46:20;;;;;;;2.93;1.47;;;;;;;;;;5080931;27;88196;-55
2023/10/06 07:48:50;;;;;;;4.40;1.47;;;;;;;;;;5080622;27;88855;-55
2023/10/06 07:51:19;;;;;;;1.30;1.20;;;;;;;;;;5080897;27;87751;-54
2023/10/06 07:53:48;;;;;;;1.50;1.30;;;;;;;;;;5080317;27;90232;-55
2023/10/06 07:56:18;;;;;;;1.70;1.40;;;;;;;;;;5080617;27;87951;-54
2023/10/06 07:58:52;;;;;;;2.97;1.00;;;;;;;;;;5080880;27;87961;-54
2023/10/06 08:01:21;;;;;;;1.63;1.13;;;;;;;;;;5084892;27;87422;-54
2023/10/06 08:03:50;;;;;;;1.10;1.00;;;;;;;;;;5079053;27;89782;-54
2023/10/06 08:06:20;;;;;;;1.50;1.10;;;;;;;;;;5084451;27;87914;-55
2023/10/06 08:08:49;;;;;;;1.20;0.90;;;;;;;;;;5082493;27;88547;-55
2023/10/06 08:11:17;;;;;;;2.93;1.37;;;;;;;;;;5083837;27;87604;-54
2023/10/06 08:13:52;;;;;;;1.03;0.90;;;;;;;;;;5066739;27;89661;-54
2023/10/06 08:16:21;;;;;;;1.20;1.10;;;;;;;;;;5077525;27;89989;-54
2023/10/06 08:18:49;;;;;;;1.10;1.00;;;;;;;;;;5064117;27;89769;-54
2023/10/06 08:21:18;;;;;;;1.37;0.83;;;;;;;;;;5068336;27;87659;-54
2023/10/06 08:23:46;;;;;;;1.37;1.07;;;;;;;;;;5076961;27;89914;-54
2023/10/06 08:26:14;;;;;;;1.97;1.40;;;;;;;;;;5063813;27;87299;-54
2023/10/06 08:28:43;;;;;;;1.93;0.93;;;;;;;;;;5077744;27;88759;-54
2023/10/06 08:31:16;;;;;;;1.77;1.13;;;;;;;;;;5083965;27;87645;-54
2023/10/06 08:33:45;;;;;;;3.40;0.83;;;;;;;;;;5084269;27;89655;-54
2023/10/06 08:36:13;;;;;;;1.47;1.37;;;;;;;;;;5078629;27;89084;-54
2023/10/06 08:38:46;;;;;;;3.23;1.30;;;;;;;;;;5076250;27;87928;-54
2023/10/06 08:41:15;;;;;;;1.53;0.97;;;;;;;;;;5083107;27;87905;-54
2023/10/06 08:43:44;;;;;;;0.90;0.80;;;;;;;;;;5081386;27;88492;-54
2023/10/06 08:46:13;;;;;;;1.53;1.00;;;;;;;;;;5071840;27;89062;-54
2023/10/06 08:48:45;;;;;;;0.80;0.80;;;;;;;;;;5073059;27;88032;-54
2023/10/06 08:51:14;;;;;;;0.83;0.83;;;;;;;;;;5083120;27;88727;-54
2023/10/06 08:53:44;;;;;;;1.47;0.90;;;;;;;;;;5082106;27;89700;-54
2023/10/06 08:56:14;;;;;;;2.03;1.03;;;;;;;;;;5082609;27;87431;-54
2023/10/06 08:58:44;;;;;;;1.37;0.83;;;;;;;;;;5083216;27;87866;-54
2023/10/06 09:01:12;;;;;;;1.03;0.87;;;;;;;;;;5083105;27;87625;-54
2023/10/06 09:03:41;;;;;;;3.13;1.20;;;;;;;;;;5083611;27;88392;-54
2023/10/06 09:06:11;;;;;;;2.30;1.03;;;;;;;;;;5082847;27;90140;-54
2023/10/06 09:08:40;;;;;;;1.43;0.80;;;;;;;;;;5083094;27;89988;-54
2023/10/06 09:11:09;;;;;;;2.10;1.00;;;;;;;;;;5080951;27;87502;-54
2023/10/06 09:13:38;;;;;;;1.90;1.20;;;;;;;;;;5082866;27;89733;-54
2023/10/06 09:16:07;;;;;;;1.57;1.00;;;;;;;;;;5083320;27;89034;-54
2023/10/06 09:18:38;;;;;;;1.40;1.10;;;;;;;;;;5079335;27;87778;-54
2023/10/06 09:21:18;;;;;;;2.83;0.90;;;;;;;;;;5078289;27;87569;-53
2023/10/06 09:23:46;;;;;;;1.87;1.00;;;;;;;;;;5082180;27;88665;-53
2023/10/06 09:26:16;;;;;;;0.93;0.80;;;;;;;;;;5082948;27;87823;-53
2023/10/06 09:28:51;;;;;;;1.20;1.10;;;;;;;;;;5083672;27;88984;-53
2023/10/06 09:31:34;;;;;;;0.73;0.63;;;;;;;;;;5083085;27;87839;-54
2023/10/06 09:34:05;;;;;;;2.33;0.77;;;;;;;;;;5082975;27;88334;-54
2023/10/06 09:36:38;;;;;;;1.20;0.80;;;;;;;;;;5082779;27;88261;-54
2023/10/06 09:39:14;;;;;;;1.30;0.90;;;;;;;;;;5082614;27;88348;-54
2023/10/06 09:41:43;;;;;;;1.63;0.93;;;;;;;;;;5083369;27;87386;-54
2023/10/06 09:44:11;;;;;;;3.33;1.10;;;;;;;;;;5082718;27;87435;-53
2023/10/06 09:46:41;;;;;;;1.73;1.10;;;;;;;;;;5081806;27;88052;-54
2023/10/06 09:49:11;;;;;;;3.60;1.20;;;;;;;;;;5082474;27;87751;-55
2023/10/06 09:51:41;;;;;;;1.53;0.80;;;;;;;;;;5083117;27;87410;-54
2023/10/06 09:54:09;;;;;;;0.80;0.80;;;;;;;;;;5082455;27;89654;-54
2023/10/06 09:56:40;;;;;;;3.13;1.07;;;;;;;;;;5082167;27;88928;-54
2023/10/06 09:59:12;;;;;;;1.80;0.70;;;;;;;;;;5077008;27;88616;-54
2023/10/06 10:01:42;;;;;;;2.10;1.47;;;;;;;;;;5081229;27;87641;-54
2023/10/06 10:04:11;;;;;;;3.30;1.17;;;;;;;;;;5081524;27;88617;-54
2023/10/06 10:06:44;;;;;;;0.97;0.77;;;;;;;;;;5077649;27;88268;-54
2023/10/06 10:09:15;;;;;;;2.63;1.00;;;;;;;;;;5072890;27;88574;-54
2023/10/06 10:11:45;;;;;;;1.90;1.00;;;;;;;;;;5082634;27;87492;-54
2023/10/06 10:14:19;;;;;;;3.67;1.00;;;;;;;;;;5077886;27;88579;-54
2023/10/06 10:16:51;;;;;;;6.30;1.00;;;;;;;;;;5081981;27;89279;-54
2023/10/06 10:19:22;;;;;;;1.17;0.70;;;;;;;;;;5081576;27;87904;-53
2023/10/06 10:21:52;;;;;;;0.80;0.80;;;;;;;;;;5080889;27;88025;-54
2023/10/06 10:24:21;;;;;;;1.30;0.50;;;;;;;;;;5070382;27;89680;-54
2023/10/06 10:26:52;;;;;;;0.80;0.67;;;;;;;;;;5060380;27;88726;-54
2023/10/06 10:29:29;;;;;;;0.50;0.50;;;;;;;;;;5078939;27;87754;-54
2023/10/06 10:32:01;;;;;;;1.30;0.63;;;;;;;;;;5081521;27;87652;-54
2023/10/06 10:34:33;;;;;;;1.03;0.80;;;;;;;;;;5077046;27;88544;-54
2023/10/06 10:37:16;;;;;;;2.33;1.30;;;;;;;;;;5061544;27;88031;-54
2023/10/06 10:39:49;;;;;;;0.80;0.80;;;;;;;;;;5064255;27;88884;-54
2023/10/06 10:42:21;;;;;;;1.07;0.87;;;;;;;;;;5081117;27;87727;-54
2023/10/06 10:44:49;;;;;;;1.57;0.87;;;;;;;;;;5081344;27;89336;-54
2023/10/06 10:47:20;;;;;;;0.87;0.80;;;;;;;;;;5080311;27;89013;-53
2023/10/06 10:49:48;;;;;;;2.63;0.80;;;;;;;;;;5080302;27;89704;-54
2023/10/06 10:52:18;;;;;;;1.03;0.80;;;;;;;;;;5081333;27;87644;-55
2023/10/06 10:54:47;;;;;;;5.90;1.43;;;;;;;;;;5079404;27;88475;-55
2023/10/06 10:57:21;;;;;;;5.90;1.10;;;;;;;;;;5080640;27;88945;-54
2023/10/06 11:00:13;;;;;;;3.53;1.33;;;;;;;;;;5080681;27;88880;-54
2023/10/06 11:02:42;;;;;;;1.33;0.87;;;;;;;;;;5069969;27;88892;-54
2023/10/06 11:05:11;;;;;;;0.77;0.77;;;;;;;;;;5079544;27;88819;-54
2023/10/06 11:07:43;;;;;;;2.77;1.27;;;;;;;;;;5081244;27;87920;-54
2023/10/06 11:10:14;;;;;;;1.53;0.70;;;;;;;;;;5073513;27;87747;-53
2023/10/06 11:12:43;;;;;;;3.70;0.87;;;;;;;;;;5078638;27;88235;-53
2023/10/06 11:15:15;;;;;;;2.10;1.20;;;;;;;;;;5064719;27;89588;-53
2023/10/06 11:17:44;;;;;;;3.43;0.90;;;;;;;;;;5078433;27;87811;-52
2023/10/06 11:20:21;;;;;;;0.70;0.70;;;;;;;;;;5078747;27;87767;-53
2023/10/06 11:22:58;;;;;;;2.40;0.63;;;;;;;;;;5074449;27;87513;-53
2023/10/06 11:25:32;;;;;;;2.30;1.00;;;;;;;;;;5070552;27;88542;-53
2023/10/06 11:28:03;;;;;;;4.30;1.17;;;;;;;;;;5073397;27;89195;-54
2023/10/06 11:30:32;;;;;;;1.23;0.70;;;;;;;;;;5080888;27;87890;-54
2023/10/06 11:33:02;;;;;;;2.70;1.00;;;;;;;;;;5080150;27;87620;-54
2023/10/06 11:35:32;;;;;;;1.40;0.70;;;;;;;;;;5063592;27;89790;-53
2023/10/06 11:38:02;;;;;;;0.87;0.80;;;;;;;;;;5077737;27;88913;-54
2023/10/06 11:40:31;;;;;;;1.23;0.53;;;;;;;;;;5079862;27;88696;-55
2023/10/06 11:43:10;;;;;;;0.73;0.70;;;;;;;;;;5081263;27;87603;-54
2023/10/06 11:45:38;;;;;;;3.00;0.80;;;;;;;;;;5080815;27;89606;-54
2023/10/06 11:48:23;;;;;;;4.10;0.50;;;;;;;;;;5080271;27;89250;-54
2023/10/06 11:50:59;;;;;;;1.13;0.60;;;;;;;;;;5070131;27;88673;-55
2023/10/06 11:53:29;;;;;;;1.77;0.90;;;;;;;;;;5074742;27;87466;-54
2023/10/06 11:56:08;;;;;;;1.07;0.70;;;;;;;;;;5072964;27;88913;-53
2023/10/06 11:58:37;;;;;;;1.17;0.53;;;;;;;;;;5077894;27;88141;-54
2023/10/06 12:01:06;;;;;;;6.93;0.70;;;;;;;;;;5072540;27;88776;-54
2023/10/06 12:03:38;;;;;;;0.57;0.57;;;;;;;;;;5076221;27;88010;-55
2023/10/06 12:06:11;;;;;;;1.10;0.67;;;;;;;;;;5064383;27;89594;-55
2023/10/06 12:08:45;;;;;;;1.83;0.50;;;;;;;;;;5071984;27;88910;-54
2023/10/06 12:11:14;;;;;;;2.37;0.50;;;;;;;;;;5067498;27;87876;-54
2023/10/06 12:13:42;;;;;;;1.13;0.57;;;;;;;;;;5060863;27;87728;-54
2023/10/06 12:16:14;;;;;;;2.23;1.10;;;;;;;;;;5079978;27;88507;-54
2023/10/06 12:18:44;;;;;;;0.60;0.60;;;;;;;;;;5062919;27;89208;-55
2023/10/06 12:21:14;;;;;;;0.97;0.53;;;;;;;;;;5073046;27;88899;-54
2023/10/06 12:23:42;;;;;;;0.60;0.60;;;;;;;;;;5076257;27;87613;-54
2023/10/06 12:26:12;;;;;;;2.57;0.60;;;;;;;;;;5075676;27;88533;-54
2023/10/06 12:28:42;;;;;;;0.53;0.53;;;;;;;;;;5068038;27;90068;-54
2023/10/06 12:31:12;;;;;;;0.87;0.40;;;;;;;;;;5072498;27;90065;-54
2023/10/06 12:33:40;;;;;;;0.50;0.50;;;;;;;;;;5076813;27;87763;-54
2023/10/06 12:36:11;;;;;;;2.00;0.80;;;;;;;;;;5076400;27;89703;-54
2023/10/06 12:38:40;;;;;;;2.03;0.77;;;;;;;;;;5071385;27;91697;-53
2023/10/06 12:41:12;;;;;;;2.47;0.73;;;;;;;;;;5070635;27;87729;-53
2023/10/06 12:43:41;;;;;;;0.60;0.60;;;;;;;;;;5067967;27;87547;-54
2023/10/06 12:46:10;;;;;;;1.13;0.53;;;;;;;;;;5071990;27;88473;-54
2023/10/06 12:48:39;;;;;;;1.03;0.80;;;;;;;;;;5081914;27;87926;-54
2023/10/06 12:51:11;;;;;;;4.77;0.73;;;;;;;;;;5078551;27;88614;-54
2023/10/06 12:53:40;;;;;;;1.20;0.57;;;;;;;;;;5079506;27;88010;-54
2023/10/06 12:56:09;;;;;;;3.13;1.00;;;;;;;;;;5064681;27;88720;-53
2023/10/06 12:58:38;;;;;;;0.67;0.60;;;;;;;;;;5082731;27;88012;-54
2023/10/06 13:01:08;;;;;;;0.80;0.70;;;;;;;;;;5078067;27;87553;-54
2023/10/06 13:03:37;;;;;;;2.80;1.00;;;;;;;;;;5080767;27;87702;-53
2023/10/06 13:06:07;;;;;;;0.97;0.90;;;;;;;;;;5070564;27;89834;-54
2023/10/06 13:08:38;;;;;;;4.07;0.80;;;;;;;;;;5075940;27;88030;-55
2023/10/06 13:11:10;;;;;;;3.77;1.10;;;;;;;;;;5075630;27;88966;-54
2023/10/06 13:13:38;;;;;;;2.97;1.10;;;;;;;;;;5080154;27;88745;-53
2023/10/06 13:16:09;;;;;;;5.27;1.20;;;;;;;;;;5081280;27;89661;-54
2023/10/06 13:18:37;;;;;;;2.40;0.97;;;;;;;;;;5079068;27;90012;-53
2023/10/06 13:21:07;;;;;;;3.80;1.20;;;;;;;;;;5080961;27;89750;-54
2023/10/06 13:23:37;;;;;;;3.40;1.27;;;;;;;;;;5076095;27;87595;-54
2023/10/06 13:26:06;;;;;;;4.63;1.60;;;;;;;;;;5075701;27;89825;-55
2023/10/06 13:28:34;;;;;;;1.93;0.90;;;;;;;;;;5075065;27;89143;-53
2023/10/06 13:31:04;;;;;;;5.43;1.40;;;;;;;;;;5079390;27;88662;-56
2023/10/06 13:33:34;;;;;;;2.53;0.87;;;;;;;;;;5082264;27;87750;-54
2023/10/06 13:36:05;;;;;;;0.93;0.70;;;;;;;;;;5082991;27;89980;-54
2023/10/06 13:38:36;;;;;;;1.73;1.30;;;;;;;;;;5083065;27;88051;-54
2023/10/06 13:41:07;;;;;;;2.30;1.00;;;;;;;;;;5082864;27;87722;-54
2023/10/06 13:43:36;;;;;;;2.20;0.83;;;;;;;;;;5081929;27;88039;-55
2023/10/06 13:46:05;;;;;;;1.50;0.77;;;;;;;;;;5082955;27;89678;-54
2023/10/06 13:48:35;;;;;;;1.13;0.70;;;;;;;;;;5082586;27;89209;-54
2023/10/06 13:51:03;;;;;;;0.93;0.57;;;;;;;;;;5082629;27;87608;-54
2023/10/06 13:53:32;;;;;;;0.90;0.60;;;;;;;;;;5082707;27;87759;-55
2023/10/06 13:56:00;;;;;;;1.03;0.60;;;;;;;;;;5081818;27;89604;-54
2023/10/06 13:58:29;;;;;;;2.30;1.10;;;;;;;;;;5081350;27;87409;-54
2023/10/06 14:00:58;;;;;;;1.83;1.20;;;;;;;;;;5082801;27;88908;-54
2023/10/06 14:03:27;;;;;;;0.97;0.87;;;;;;;;;;5082872;27;87605;-54
2023/10/06 14:05:57;;;;;;;1.50;0.80;;;;;;;;;;5082042;27;89557;-55
2023/10/06 14:08:28;;;;;;;3.07;0.60;;;;;;;;;;5080137;27;89329;-54
2023/10/06 14:10:57;;;;;;;3.47;1.00;;;;;;;;;;5078177;27;88829;-54
2023/10/06 14:13:27;;;;;;;2.00;0.77;;;;;;;;;;5079864;27;87697;-53
2023/10/06 14:16:08;;;;;;;2.23;0.90;;;;;;;;;;5079334;27;87503;-56
2023/10/06 14:18:38;;;;;;;1.73;0.87;;;;;;;;;;5061985;27;88060;-54
2023/10/06 14:21:11;;;;;;;0.80;0.67;;;;;;;;;;5078673;27;87734;-54
2023/10/06 14:23:43;;;;;;;0.90;0.67;;;;;;;;;;5079046;27;87506;-54
2023/10/06 14:26:12;;;;;;;0.83;0.63;;;;;;;;;;5079269;27;88496;-54
2023/10/06 14:28:40;;;;;;;1.43;0.70;;;;;;;;;;5079422;27;88017;-53
2023/10/06 14:31:16;;;;;;;1.10;0.60;;;;;;;;;;5078888;27;88095;-55
2023/10/06 14:33:47;;;;;;;4.37;0.80;;;;;;;;;;5077926;27;87981;-53
2023/10/06 14:36:25;;;;;;;0.70;0.63;;;;;;;;;;5078854;27;89626;-53
2023/10/06 14:47:26;;;;;;;0.40;0.40;;;;;;;;;;4994833;28;89685;-55
2023/10/06 14:49:57;;;;;;;1.20;0.77;;;;;;;;;;4995020;28;89250;-54
2023/10/06 14:52:31;;;;;;;3.93;1.20;;;;;;;;;;5034025;27;89692;-54
2023/10/06 14:55:00;;;;;;;1.37;0.87;;;;;;;;;;5078830;27;87615;-54
2023/10/06 14:57:28;;;;;;;0.63;0.60;;;;;;;;;;5077965;27;89510;-54
2023/10/06 14:59:57;;;;;;;1.73;0.90;;;;;;;;;;5078179;27;89022;-55
2023/10/06 15:02:25;;;;;;;1.70;0.93;;;;;;;;;;5078561;27;88736;-54
2023/10/06 15:04:54;;;;;;;1.83;0.67;;;;;;;;;;5078432;27;87557;-54
2023/10/06 15:07:22;;;;;;;1.03;0.60;;;;;;;;;;5078646;27;89755;-54
2023/10/06 15:09:52;;;;;;;2.67;0.83;;;;;;;;;;5077804;27;89035;-54
2023/10/06 15:12:25;;;;;;;2.90;0.50;;;;;;;;;;5078436;27;87698;-54
2023/10/06 15:14:54;;;;;;;1.87;1.00;;;;;;;;;;5078666;27;87971;-54